createdAt,value
2022-11-04T00:00:28.675Z,0.93
2022-11-04T00:02:58.764Z,1.07
2022-11-04T00:05:27.939Z,1.20
2022-11-04T00:08:15.658Z,0.90
2022-11-04T00:11:02.260Z,0.93
2022-11-04T00:13:30.957Z,0.93
2022-11-04T00:16:20.217Z,1.07
2022-11-04T00:18:48.835Z,0.80
2022-11-04T00:21:35.152Z,0.90
2022-11-04T00:24:22.920Z,0.90
2022-11-04T00:27:09.400Z,1.10
2022-11-04T00:29:37.955Z,0.80
2022-11-04T00:32:24.490Z,1.27
2022-11-04T00:34:53.040Z,0.80
2022-11-04T00:37:21.635Z,0.97
2022-11-04T00:39:51.517Z,1.13
2022-11-04T00:42:20.062Z,0.77
2022-11-04T00:44:48.586Z,0.80
2022-11-04T00:47:17.100Z,2.07
2022-11-04T00:49:45.636Z,0.90
2022-11-04T00:52:14.174Z,1.03
2022-11-04T00:54:42.760Z,2.20
2022-11-04T00:57:12.766Z,0.80
2022-11-04T00:59:41.443Z,1.00
2022-11-04T01:02:10.376Z,1.23
2022-11-04T01:04:39.025Z,1.00
2022-11-04T01:07:07.746Z,0.77
2022-11-04T01:09:36.356Z,1.27
2022-11-04T01:12:05.084Z,2.00
2022-11-04T01:14:35.130Z,1.20
2022-11-04T01:17:03.699Z,1.17
2022-11-04T01:19:32.236Z,1.53
2022-11-04T01:22:00.772Z,1.03
2022-11-04T01:24:29.375Z,2.70
2022-11-04T01:26:57.947Z,1.53
2022-11-04T01:29:26.535Z,2.63
2022-11-04T01:31:56.484Z,1.23
2022-11-04T01:34:25.113Z,1.87
2022-11-04T01:36:53.666Z,1.23
2022-11-04T01:39:22.282Z,0.97
2022-11-04T01:41:50.872Z,2.30
2022-11-04T01:44:37.974Z,1.30
2022-11-04T01:47:08.163Z,1.53
2022-11-04T01:49:43.306Z,1.83
2022-11-04T01:52:14.799Z,1.30
2022-11-04T01:54:43.601Z,1.40
2022-11-04T01:57:15.218Z,1.70
2022-11-04T01:59:43.948Z,1.83
2022-11-04T02:02:13.917Z,1.23
2022-11-04T02:04:42.848Z,1.80
2022-11-04T02:07:11.840Z,1.10
2022-11-04T02:09:41.167Z,1.30
2022-11-04T02:12:27.289Z,1.73
2022-11-04T02:14:56.176Z,1.03
2022-11-04T02:17:33.254Z,1.57
2022-11-04T02:20:13.604Z,1.93
2022-11-04T02:22:53.327Z,1.43
2022-11-04T02:25:34.578Z,1.50
2022-11-04T02:28:15.531Z,1.30
2022-11-04T02:30:49.249Z,2.20
2022-11-04T02:33:22.506Z,1.07
2022-11-04T02:35:55.731Z,2.00
2022-11-04T02:38:31.684Z,1.90
2022-11-04T02:41:03.404Z,0.87
2022-11-04T02:43:35.318Z,1.37
2022-11-04T02:46:07.020Z,2.60
2022-11-04T02:48:38.017Z,2.20
2022-11-04T02:51:09.183Z,1.70
2022-11-04T02:53:40.451Z,1.03
2022-11-04T02:56:09.834Z,1.20
2022-11-04T02:58:41.986Z,1.90
2022-11-04T03:01:14.655Z,1.80
2022-11-04T03:03:47.530Z,1.27
2022-11-04T03:06:16.924Z,2.17
2022-11-04T03:08:47.316Z,1.60
2022-11-04T03:11:17.530Z,1.10
2022-11-04T03:13:48.776Z,2.10
2022-11-04T03:16:19.493Z,1.60
2022-11-04T03:18:53.976Z,2.10
2022-11-04T03:21:23.602Z,1.13
2022-11-04T03:23:52.235Z,2.13
2022-11-04T03:26:25.498Z,0.73
2022-11-04T03:28:59.063Z,1.83
2022-11-04T03:31:31.483Z,1.03
2022-11-04T03:34:00.230Z,0.73
2022-11-04T03:36:30.167Z,1.60
2022-11-04T03:38:58.751Z,0.70
2022-11-04T03:41:32.087Z,1.50
2022-11-04T03:44:00.610Z,1.40
2022-11-04T03:46:30.555Z,1.13
2022-11-04T03:48:59.870Z,1.27
2022-11-04T03:51:28.405Z,1.23
2022-11-04T03:53:57.280Z,1.00
2022-11-04T03:56:31.671Z,1.53
2022-11-04T03:59:05.709Z,0.87
2022-11-04T04:01:38.492Z,1.00
2022-11-04T04:04:10.394Z,1.57
2022-11-04T04:06:39.453Z,1.33
2022-11-04T04:09:11.206Z,1.30
2022-11-04T04:11:42.916Z,1.80
2022-11-04T04:14:35.848Z,0.93
2022-11-04T04:17:07.366Z,1.63
2022-11-04T04:19:36.311Z,0.87
2022-11-04T04:22:06.532Z,1.80
2022-11-04T04:24:54.893Z,0.70
2022-11-04T04:27:41.485Z,1.00
2022-11-04T04:30:11.289Z,1.30
2022-11-04T04:32:43.535Z,1.17
2022-11-04T04:35:30.426Z,1.57
2022-11-04T04:38:20.701Z,1.60
2022-11-04T04:41:09.954Z,1.90
2022-11-04T04:43:57.843Z,1.40
2022-11-04T04:46:26.710Z,2.00
2022-11-04T04:48:56.587Z,1.70
2022-11-04T04:51:25.368Z,1.57
2022-11-04T04:53:54.096Z,1.60
2022-11-04T04:56:22.659Z,1.60
2022-11-04T04:58:51.208Z,1.50
2022-11-04T05:01:19.905Z,1.47
2022-11-04T05:03:48.551Z,1.70
2022-11-04T05:06:18.447Z,2.73
2022-11-04T05:08:47.011Z,1.27
2022-11-04T05:11:15.747Z,1.00
2022-11-04T05:13:44.310Z,1.60
2022-11-04T05:16:13.315Z,1.30
2022-11-04T05:18:41.850Z,2.17
2022-11-04T05:21:12.244Z,1.27
2022-11-04T05:23:42.207Z,1.50
2022-11-04T05:26:10.824Z,1.60
2022-11-04T05:28:39.614Z,1.40
2022-11-04T05:31:08.383Z,1.87
2022-11-04T05:33:36.938Z,1.10
2022-11-04T05:36:09.278Z,1.27
2022-11-04T05:38:38.147Z,1.07
2022-11-04T05:41:08.785Z,0.80
2022-11-04T05:43:37.478Z,1.33
2022-11-04T05:46:06.341Z,1.20
2022-11-04T05:48:40.147Z,1.07
2022-11-04T05:51:09.286Z,1.47
2022-11-04T05:53:37.825Z,0.83
2022-11-04T05:56:08.200Z,1.97
2022-11-04T05:58:36.890Z,1.03
2022-11-04T06:01:15.751Z,1.00
2022-11-04T06:03:44.449Z,1.20
2022-11-04T06:06:12.975Z,1.80
2022-11-04T06:08:45.196Z,1.30
2022-11-04T06:11:15.348Z,1.87
2022-11-04T06:13:44.013Z,1.07
2022-11-04T06:16:12.531Z,1.83
2022-11-04T06:18:41.086Z,1.30
2022-11-04T06:21:10.722Z,1.10
2022-11-04T06:23:39.285Z,1.07
2022-11-04T06:26:08.123Z,1.43
2022-11-04T06:28:38.936Z,1.20
2022-11-04T06:31:08.383Z,1.30
2022-11-04T06:33:37.324Z,0.73
2022-11-04T06:36:06.774Z,1.27
2022-11-04T06:38:36.373Z,0.83
2022-11-04T06:43:34.583Z,1.93
2022-11-04T06:46:05.021Z,2.10
2022-11-04T06:48:33.782Z,1.43
2022-11-04T06:51:02.620Z,1.80
2022-11-04T06:53:31.157Z,1.37
2022-11-04T06:56:03.862Z,1.40
2022-11-04T06:58:32.408Z,1.30
2022-11-04T07:01:01.065Z,1.60
2022-11-04T07:03:31.013Z,1.73
2022-11-04T07:05:59.614Z,2.70
2022-11-04T07:08:28.155Z,2.13
2022-11-04T07:10:56.824Z,1.80
2022-11-04T07:13:25.486Z,1.30
2022-11-04T07:15:54.027Z,1.47
2022-11-04T07:18:22.620Z,1.20
2022-11-04T07:20:52.533Z,1.53
2022-11-04T07:23:21.918Z,1.27
2022-11-04T07:25:50.495Z,2.63
2022-11-04T07:28:19.057Z,1.73
2022-11-04T07:30:47.680Z,1.77
2022-11-04T07:33:16.223Z,0.83
2022-11-04T07:35:45.600Z,1.00
2022-11-04T07:38:15.485Z,2.20
2022-11-04T07:40:44.028Z,1.70
2022-11-04T07:43:12.555Z,2.03
2022-11-04T07:45:41.114Z,1.33
2022-11-04T07:48:10.024Z,2.67
2022-11-04T07:50:40.091Z,2.00
2022-11-04T07:53:09.110Z,2.00
2022-11-04T07:55:43.450Z,2.10
2022-11-04T07:58:12.299Z,2.13
2022-11-04T08:00:41.179Z,2.20
2022-11-04T08:03:10.027Z,1.83
2022-11-04T08:05:38.759Z,1.57
2022-11-04T08:08:07.687Z,1.10
2022-11-04T08:10:36.259Z,1.27
2022-11-04T08:13:06.334Z,1.07
2022-11-04T08:15:37.653Z,1.50
2022-11-04T08:18:06.203Z,0.83
2022-11-04T08:20:34.792Z,2.30
2022-11-04T08:23:03.301Z,3.23
2022-11-04T08:25:31.864Z,2.00
2022-11-04T08:28:01.307Z,0.87
2022-11-04T08:30:31.318Z,2.67
2022-11-04T08:32:59.877Z,2.00
2022-11-04T08:35:28.423Z,1.80
2022-11-04T08:37:57.026Z,2.40
2022-11-04T08:40:25.616Z,2.93
2022-11-04T08:42:54.161Z,1.20
2022-11-04T08:45:22.702Z,1.40
2022-11-04T08:47:52.649Z,1.63
2022-11-04T08:50:21.927Z,1.10
2022-11-04T08:52:50.452Z,1.60
2022-11-04T08:55:19.029Z,1.00
2022-11-04T08:57:47.651Z,1.00
2022-11-04T09:00:17.621Z,0.80
2022-11-04T09:02:46.168Z,0.90
2022-11-04T09:05:16.123Z,0.93
2022-11-04T09:07:44.808Z,0.83
2022-11-04T09:10:13.362Z,1.17
2022-11-04T09:12:42.158Z,0.80
2022-11-04T09:15:11.080Z,0.80
2022-11-04T09:17:40.107Z,0.90
2022-11-04T09:20:09.166Z,0.87
2022-11-04T09:22:43.151Z,0.60
2022-11-04T09:25:14.250Z,0.70
2022-11-04T09:27:42.751Z,0.53
2022-11-04T09:30:12.149Z,0.83
2022-11-04T09:32:40.704Z,0.60
2022-11-04T09:35:09.853Z,0.70
2022-11-04T09:37:39.706Z,0.90
2022-11-04T09:40:08.998Z,0.63
2022-11-04T09:42:42.494Z,1.00
2022-11-04T09:45:21.593Z,0.70
2022-11-04T09:47:52.602Z,0.60
2022-11-04T09:50:24.051Z,0.70
2022-11-04T09:52:56.899Z,0.60
2022-11-04T09:55:27.769Z,0.40
2022-11-04T09:57:57.872Z,0.50
2022-11-04T10:00:26.871Z,0.50
2022-11-04T10:02:59.659Z,1.00
2022-11-04T10:05:35.713Z,0.90
2022-11-04T10:08:17.644Z,1.07
2022-11-04T10:10:50.238Z,0.93
2022-11-04T10:13:24.710Z,1.53
2022-11-04T10:16:04.345Z,1.33
2022-11-04T10:18:40.637Z,0.70
2022-11-04T10:21:13.152Z,1.10
2022-11-04T10:23:45.863Z,0.67
2022-11-04T10:26:17.824Z,0.93
2022-11-04T10:28:50.303Z,1.67
2022-11-04T10:31:19.736Z,1.10
2022-11-04T10:33:50.346Z,1.00
2022-11-04T10:36:19.566Z,0.77
2022-11-04T10:38:50.743Z,1.43
2022-11-04T10:41:31.653Z,0.67
2022-11-04T10:44:03.420Z,0.90
2022-11-04T10:46:38.797Z,0.70
2022-11-04T10:49:26.354Z,0.90
2022-11-04T10:51:55.474Z,1.10
2022-11-04T10:54:27.232Z,1.00
2022-11-04T10:56:56.506Z,1.43
2022-11-04T10:59:26.622Z,1.07
2022-11-04T11:01:55.944Z,1.07
2022-11-04T11:04:29.663Z,0.70
2022-11-04T11:06:59.453Z,1.00
2022-11-04T11:09:30.539Z,1.07
2022-11-04T11:12:00.976Z,1.37
2022-11-04T11:14:37.106Z,1.00
2022-11-04T11:17:22.436Z,1.33
2022-11-04T11:19:52.930Z,1.33
2022-11-04T11:22:32.605Z,1.30
2022-11-04T11:25:16.809Z,1.90
2022-11-04T11:27:48.942Z,2.10
2022-11-04T11:30:21.255Z,1.13
2022-11-04T11:32:53.616Z,1.73
2022-11-04T11:35:24.068Z,1.40
2022-11-04T11:37:52.662Z,1.60
2022-11-04T11:40:31.575Z,1.57
2022-11-04T11:43:01.340Z,1.30
2022-11-04T11:45:30.512Z,1.00
2022-11-04T11:47:59.112Z,0.97
2022-11-04T11:50:32.484Z,1.07
2022-11-04T11:53:10.151Z,0.80
2022-11-04T11:55:44.055Z,1.00
2022-11-04T12:01:12.048Z,1.93
2022-11-04T12:09:38.399Z,1.00
2022-11-04T12:12:12.028Z,1.40
2022-11-04T12:14:48.885Z,1.50
2022-11-04T12:17:24.616Z,0.73
2022-11-04T12:20:14.260Z,1.20
2022-11-04T12:22:47.556Z,0.77
2022-11-04T12:25:22.167Z,1.00
2022-11-04T12:27:54.665Z,0.90
2022-11-04T12:30:32.321Z,1.10
2022-11-04T12:33:08.742Z,1.00
2022-11-04T12:35:57.937Z,2.07
2022-11-04T12:38:33.885Z,0.90
2022-11-04T12:41:32.208Z,1.60
2022-11-04T12:43:58.903Z,1.10
2022-11-04T12:46:30.324Z,1.20
2022-11-04T12:49:09.081Z,0.80
2022-11-04T12:51:42.572Z,1.50
2022-11-04T12:54:22.976Z,0.93
2022-11-04T12:56:55.260Z,2.43
2022-11-04T12:59:48.445Z,1.80
2022-11-04T13:02:21.742Z,1.73
2022-11-04T13:04:54.781Z,1.37
2022-11-04T13:07:26.281Z,1.17
2022-11-04T13:09:55.675Z,2.87
2022-11-04T13:12:25.925Z,1.33
2022-11-04T13:14:57.149Z,1.10
2022-11-04T13:17:28.257Z,1.83
2022-11-04T13:19:58.395Z,1.53
2022-11-04T13:22:28.485Z,0.70
2022-11-04T13:24:58.514Z,0.93
2022-11-04T13:27:28.769Z,0.93
2022-11-04T13:30:04.980Z,1.13
2022-11-04T13:32:35.622Z,1.30
2022-11-04T13:35:10.748Z,0.70
2022-11-04T13:37:40.774Z,1.57
2022-11-04T13:40:15.698Z,1.50
2022-11-04T13:43:16.904Z,0.73
2022-11-04T13:45:51.567Z,1.37
2022-11-04T13:48:21.897Z,1.00
2022-11-04T13:50:57.291Z,1.00
2022-11-04T13:53:40.727Z,1.03
2022-11-04T13:56:31.764Z,1.07
2022-11-04T13:59:00.907Z,1.10
2022-11-04T14:01:32.457Z,1.30
2022-11-04T14:04:06.808Z,1.13
2022-11-04T14:06:52.336Z,1.80
2022-11-04T14:09:35.211Z,0.93
2022-11-04T14:12:20.468Z,1.33
2022-11-04T14:14:51.485Z,0.53
2022-11-04T14:17:38.605Z,1.20
2022-11-04T14:20:12.756Z,1.50
2022-11-04T14:22:49.884Z,1.43
2022-11-04T14:25:23.190Z,0.80
2022-11-04T14:27:52.416Z,1.10
2022-11-04T14:30:37.717Z,0.93
2022-11-04T14:33:08.457Z,0.83
2022-11-04T14:35:38.583Z,0.83
2022-11-04T14:38:09.092Z,0.93
2022-11-04T14:40:48.200Z,0.70
2022-11-04T14:43:21.026Z,0.70
2022-11-04T14:45:49.610Z,0.73
2022-11-04T14:48:19.813Z,1.03
2022-11-04T14:50:51.779Z,1.00
2022-11-04T14:53:23.910Z,0.93
2022-11-04T14:56:04.188Z,1.03
2022-11-04T14:58:32.780Z,1.07
2022-11-04T15:01:02.790Z,0.90
2022-11-04T15:04:10.334Z,1.13
2022-11-04T15:06:40.617Z,1.07
2022-11-04T15:09:25.630Z,1.10
2022-11-04T15:12:17.684Z,0.87
2022-11-04T15:14:46.363Z,2.17
2022-11-04T15:17:18.957Z,1.40
2022-11-04T15:19:50.541Z,0.83
2022-11-04T15:22:20.825Z,0.93
2022-11-04T15:24:50.549Z,1.63
2022-11-04T15:27:20.618Z,1.70
2022-11-04T15:29:55.166Z,1.57
2022-11-04T15:32:24.147Z,1.77
2022-11-04T15:34:53.523Z,1.43
2022-11-04T15:37:24.257Z,1.13
2022-11-04T15:39:53.829Z,1.60
2022-11-04T15:42:42.791Z,1.50
2022-11-04T15:45:35.147Z,1.20
2022-11-04T15:48:22.425Z,1.50
2022-11-04T15:50:53.530Z,1.30
2022-11-04T15:53:23.397Z,2.30
2022-11-04T15:55:51.997Z,2.23
2022-11-04T15:58:20.986Z,1.10
2022-11-04T16:00:54.259Z,1.57
2022-11-04T16:03:24.216Z,1.63
2022-11-04T16:06:02.564Z,1.87
2022-11-04T16:08:33.284Z,1.67
2022-11-04T16:11:12.795Z,1.40
2022-11-04T16:13:41.510Z,1.00
2022-11-04T16:16:21.348Z,1.53
2022-11-04T16:18:54.235Z,1.00
2022-11-04T16:21:24.579Z,1.60
2022-11-04T16:23:55.383Z,1.20
2022-11-04T16:26:27.948Z,2.10
2022-11-04T16:28:57.339Z,1.30
2022-11-04T16:31:27.671Z,2.03
2022-11-04T16:33:56.229Z,2.50
2022-11-04T16:36:24.819Z,2.03
2022-11-04T16:38:58.748Z,1.80
2022-11-04T16:41:28.675Z,1.20
2022-11-04T16:43:57.350Z,1.20
2022-11-04T16:46:25.932Z,2.23
2022-11-04T16:48:54.471Z,1.30
2022-11-04T16:51:24.046Z,1.97
2022-11-04T16:53:53.886Z,2.10
2022-11-04T16:56:25.062Z,1.40
2022-11-04T16:58:53.723Z,2.43
2022-11-04T17:01:22.303Z,1.80
2022-11-04T17:03:50.848Z,3.50
2022-11-04T17:06:19.872Z,1.70
2022-11-04T17:08:48.557Z,1.80
2022-11-04T17:11:17.145Z,1.50
2022-11-04T17:13:47.056Z,1.60
2022-11-04T17:16:16.223Z,1.40
2022-11-04T17:18:44.755Z,1.50
2022-11-04T17:21:16.912Z,1.60
2022-11-04T17:23:45.528Z,2.40
2022-11-04T17:26:14.621Z,1.50
2022-11-04T17:28:43.242Z,1.87
2022-11-04T17:31:17.087Z,1.80
2022-11-04T17:33:45.654Z,2.10
2022-11-04T17:36:17.559Z,2.30
2022-11-04T17:38:46.272Z,1.73
2022-11-04T17:41:32.597Z,1.57
2022-11-04T17:44:01.158Z,1.67
2022-11-04T17:46:37.996Z,1.77
2022-11-04T17:49:10.473Z,1.50
2022-11-04T17:51:39.438Z,1.67
2022-11-04T17:54:08.681Z,2.97
2022-11-04T17:56:37.244Z,2.40
2022-11-04T17:59:06.690Z,1.93
2022-11-04T18:01:37.560Z,2.40
2022-11-04T18:04:06.391Z,2.80
2022-11-04T18:06:35.697Z,3.00
2022-11-04T18:09:05.003Z,4.10
2022-11-04T18:11:51.336Z,3.10
2022-11-04T18:14:19.927Z,3.37
2022-11-04T18:16:50.681Z,3.47
2022-11-04T18:19:19.906Z,3.93
2022-11-04T18:21:49.028Z,3.97
2022-11-04T18:24:19.194Z,3.23
2022-11-04T18:26:47.797Z,3.60
2022-11-04T18:29:16.419Z,3.37
2022-11-04T18:31:49.209Z,4.00
2022-11-04T18:34:20.139Z,4.03
2022-11-04T18:36:48.697Z,4.60
2022-11-04T18:39:18.399Z,5.00
2022-11-04T18:41:47.179Z,4.30
2022-11-04T18:44:16.725Z,4.90
2022-11-04T18:46:45.516Z,4.87
2022-11-04T18:49:14.220Z,4.47
2022-11-04T18:51:44.195Z,4.83
2022-11-04T18:54:13.123Z,5.20
2022-11-04T18:56:41.842Z,5.27
2022-11-04T18:59:11.373Z,5.00
2022-11-04T19:01:40.168Z,5.63
2022-11-04T19:04:09.113Z,5.70
2022-11-04T19:06:38.516Z,5.97
2022-11-04T19:09:40.143Z,6.80
2022-11-04T19:12:11.789Z,5.73
2022-11-04T19:14:40.382Z,6.03
2022-11-04T19:17:09.299Z,5.73
2022-11-04T19:19:37.839Z,5.33
2022-11-04T19:22:06.384Z,6.10
2022-11-04T19:24:36.378Z,6.03
2022-11-04T19:27:05.232Z,5.30
2022-11-04T19:29:34.176Z,5.07
2022-11-04T19:32:02.772Z,5.10
2022-11-04T19:34:31.356Z,5.77
2022-11-04T19:36:59.899Z,5.50
2022-11-04T19:39:29.943Z,6.57
2022-11-04T19:42:17.643Z,5.00
2022-11-04T19:44:46.190Z,5.37
2022-11-04T19:47:14.775Z,5.33
2022-11-04T19:49:43.319Z,5.30
2022-11-04T19:52:11.858Z,5.23
2022-11-04T19:54:40.403Z,5.97
2022-11-04T19:57:10.260Z,5.53
2022-11-04T19:59:38.854Z,5.30
2022-11-04T20:02:07.588Z,6.07
2022-11-04T20:04:36.479Z,6.20
2022-11-04T20:07:05.056Z,5.90
2022-11-04T20:09:33.606Z,5.80
2022-11-04T20:12:28.295Z,5.80
2022-11-04T20:14:58.674Z,5.33
2022-11-04T20:17:27.244Z,5.77
2022-11-04T20:19:55.787Z,5.60
2022-11-04T20:22:24.310Z,5.60
2022-11-04T20:24:53.207Z,5.40
2022-11-04T20:27:21.798Z,5.60
2022-11-04T20:29:50.317Z,6.57
2022-11-04T20:32:20.191Z,6.03
2022-11-04T20:34:49.694Z,5.77
2022-11-04T20:37:18.230Z,5.70
2022-11-04T20:39:46.823Z,6.00
2022-11-04T20:42:15.499Z,5.43
2022-11-04T20:44:44.056Z,5.00
2022-11-04T20:47:12.622Z,5.43
2022-11-04T20:49:42.479Z,5.33
2022-11-04T20:52:11.062Z,4.93
2022-11-04T20:54:39.603Z,5.17
2022-11-04T20:57:08.444Z,4.60
2022-11-04T20:59:36.989Z,4.07
2022-11-04T21:02:05.607Z,4.27
2022-11-04T21:04:36.352Z,3.90
2022-11-04T21:07:07.545Z,3.70
2022-11-04T21:09:36.106Z,3.60
2022-11-04T21:12:04.715Z,3.60
2022-11-04T21:14:35.116Z,3.47
2022-11-04T21:17:03.873Z,3.50
2022-11-04T21:19:32.598Z,2.47
2022-11-04T21:22:01.162Z,2.87
2022-11-04T21:24:37.942Z,2.60
2022-11-04T21:27:07.624Z,2.47
2022-11-04T21:29:36.175Z,2.00
2022-11-04T21:32:04.691Z,2.07
2022-11-04T21:34:33.260Z,1.90
2022-11-04T21:37:01.823Z,1.97
2022-11-04T21:39:31.675Z,1.80
2022-11-04T21:42:00.262Z,2.03
2022-11-04T21:44:28.872Z,2.50
2022-11-04T21:46:57.434Z,2.10
2022-11-04T21:49:26.012Z,1.90
2022-11-04T21:51:54.836Z,2.20
2022-11-04T21:54:23.353Z,2.00
2022-11-04T21:56:53.317Z,2.10
2022-11-04T21:59:21.883Z,2.10
2022-11-04T22:01:50.512Z,1.87
2022-11-04T22:04:19.227Z,1.90
2022-11-04T22:06:47.771Z,2.23
2022-11-04T22:09:16.442Z,2.33
2022-11-04T22:11:45.012Z,3.23
2022-11-04T22:14:14.959Z,3.00
2022-11-04T22:16:43.488Z,2.77
2022-11-04T22:19:13.383Z,2.80
2022-11-04T22:21:42.585Z,2.47
2022-11-04T22:24:12.111Z,2.90
2022-11-04T22:26:40.856Z,3.50
2022-11-04T22:29:09.766Z,3.20
2022-11-04T22:31:40.983Z,2.90
2022-11-04T22:34:09.624Z,2.90
2022-11-04T22:36:38.232Z,3.30
2022-11-04T22:39:10.542Z,3.30
2022-11-04T22:41:42.318Z,3.37
2022-11-04T22:44:10.976Z,3.20
2022-11-04T22:46:40.935Z,3.23
2022-11-04T22:49:09.759Z,3.13
2022-11-04T22:51:38.403Z,3.53
2022-11-04T22:54:08.692Z,3.23
2022-11-04T22:56:38.096Z,3.40
2022-11-04T22:59:07.737Z,3.43
2022-11-04T23:01:36.423Z,3.17
2022-11-04T23:04:11.514Z,3.17
2022-11-04T23:06:40.122Z,3.67
2022-11-04T23:09:08.659Z,3.23
2022-11-04T23:11:55.190Z,3.67
2022-11-04T23:14:50.277Z,4.33
2022-11-04T23:17:37.613Z,3.60
2022-11-04T23:20:09.133Z,4.10
2022-11-04T23:22:55.598Z,3.83
2022-11-04T23:25:24.331Z,3.97
2022-11-04T23:28:11.516Z,3.20
2022-11-04T23:30:41.955Z,3.30
2022-11-04T23:33:11.798Z,3.40
2022-11-04T23:36:00.527Z,3.73
2022-11-04T23:38:29.533Z,3.53
2022-11-04T23:41:25.342Z,3.60
2022-11-04T23:43:54.025Z,3.40
2022-11-04T23:46:43.417Z,3.53
2022-11-04T23:49:29.970Z,4.10
2022-11-04T23:52:17.798Z,3.87
2022-11-04T23:55:04.351Z,3.50
2022-11-04T23:57:50.744Z,3.90
